Pierrepont, New York
Current Conditions -  °F | °C
As of 3:53 PM on Wednesday 26 Nov 2014 (Local Time) from KMSS Reporting Station
Overcast Overcast  
Wind Chill: 23°   Ceiling: 10000
Heat Index: 31°   Visibility: 10mi
Dew Point: 19°   Wind: 8mph
Humidity: 61%   Direction: 30°NNE
Pressure: 30.17"   Gusts: NA
Location:  44.5792°N, 75.1592°W
Report Text: KMSS 262053Z AUTO 03007KT 10SM OVC100 M01/M07 A3017 RMK AO2 SLP220 T10061072 58008
Loading
Personal Weather Stations






























Interactive Weather Map New forecast layout! Learn more

10-Day Weather Forecast

Advertisements
Track Severe Weather on mobile